sensor_id;sensor_type;location;lat;lon;timestamp;pressure;altitude;pressure_sealevel;temperature;humidity
24486;BME280;13449;49.374;8.584;2024-03-17T00:01:45;101353.91;;;6.64;100.00
24486;BME280;13449;49.374;8.584;2024-03-17T00:04:11;101358.31;;;6.62;100.00
24486;BME280;13449;49.374;8.584;2024-03-17T00:06:39;101357.69;;;6.57;100.00
24486;BME280;13449;49.374;8.584;2024-03-17T00:09:05;101363.84;;;6.56;100.00
24486;BME280;13449;49.374;8.584;2024-03-17T00:11:35;101361.44;;;6.51;100.00
24486;BME280;13449;49.374;8.584;2024-03-17T00:14:05;101353.94;;;6.44;100.00
24486;BME280;13449;49.374;8.584;2024-03-17T00:16:32;101349.97;;;6.35;100.00
24486;BME280;13449;49.374;8.584;2024-03-17T00:18:58;101344.03;;;6.32;100.00
24486;BME280;13449;49.374;8.584;2024-03-17T00:21:25;101347.75;;;6.26;100.00
24486;BME280;13449;49.374;8.584;2024-03-17T00:23:51;101351.66;;;6.17;100.00
24486;BME280;13449;49.374;8.584;2024-03-17T00:26:17;101345.75;;;6.12;100.00
24486;BME280;13449;49.374;8.584;2024-03-17T00:28:45;101343.50;;;6.05;100.00
24486;BME280;13449;49.374;8.584;2024-03-17T00:31:13;101344.34;;;6.05;100.00
24486;BME280;13449;49.374;8.584;2024-03-17T00:33:40;101339.31;;;6.00;100.00
24486;BME280;13449;49.374;8.584;2024-03-17T00:36:06;101338.47;;;6.00;100.00
24486;BME280;13449;49.374;8.584;2024-03-17T00:38:32;101332.63;;;5.93;100.00
24486;BME280;13449;49.374;8.584;2024-03-17T00:40:59;101325.78;;;5.91;100.00
24486;BME280;13449;49.374;8.584;2024-03-17T00:43:26;101324.28;;;5.84;100.00
24486;BME280;13449;49.374;8.584;2024-03-17T00:45:52;101317.44;;;5.81;100.00
24486;BME280;13449;49.374;8.584;2024-03-17T00:48:18;101315.16;;;5.74;100.00
24486;BME280;13449;49.374;8.584;2024-03-17T00:50:46;101317.91;;;5.70;100.00
24486;BME280;13449;49.374;8.584;2024-03-17T00:53:22;101311.50;;;5.78;100.00
24486;BME280;13449;49.374;8.584;2024-03-17T00:55:55;101309.47;;;5.64;100.00
24486;BME280;13449;49.374;8.584;2024-03-17T00:58:24;101310.66;;;5.57;100.00
24486;BME280;13449;49.374;8.584;2024-03-17T01:00:50;101312.44;;;5.56;100.00
24486;BME280;13449;49.374;8.584;2024-03-17T01:03:16;101309.69;;;5.59;100.00
24486;BME280;13449;49.374;8.584;2024-03-17T01:05:42;101306.59;;;5.50;100.00
24486;BME280;13449;49.374;8.584;2024-03-17T01:08:13;101307.06;;;5.59;100.00
24486;BME280;13449;49.374;8.584;2024-03-17T01:10:44;101295.06;;;5.55;100.00
24486;BME280;13449;49.374;8.584;2024-03-17T01:13:13;101292.03;;;5.44;100.00
24486;BME280;13449;49.374;8.584;2024-03-17T01:15:39;101282.63;;;5.40;100.00
24486;BME280;13449;49.374;8.584;2024-03-17T01:18:06;101284.56;;;5.35;100.00
24486;BME280;13449;49.374;8.584;2024-03-17T01:20:32;101283.78;;;5.33;100.00
24486;BME280;13449;49.374;8.584;2024-03-17T01:22:58;101283.19;;;5.26;100.00
24486;BME280;13449;49.374;8.584;2024-03-17T01:25:26;101271.97;;;5.24;100.00
24486;BME280;13449;49.374;8.584;2024-03-17T01:27:53;101267.75;;;5.20;100.00
24486;BME280;13449;49.374;8.584;2024-03-17T01:30:19;101266.13;;;5.18;100.00
24486;BME280;13449;49.374;8.584;2024-03-17T01:32:45;101267.97;;;5.16;100.00
24486;BME280;13449;49.374;8.584;2024-03-17T01:35:11;101261.97;;;5.14;100.00
24486;BME280;13449;49.374;8.584;2024-03-17T01:37:42;101260.41;;;5.09;100.00
24486;BME280;13449;49.374;8.584;2024-03-17T01:40:08;101257.06;;;5.06;100.00
24486;BME280;13449;49.374;8.584;2024-03-17T01:42:37;101251.09;;;5.02;100.00
24486;BME280;13449;49.374;8.584;2024-03-17T01:45:24;101245.09;;;5.00;100.00
24486;BME280;13449;49.374;8.584;2024-03-17T01:47:54;101250.31;;;5.00;100.00
24486;BME280;13449;49.374;8.584;2024-03-17T01:50:24;101240.78;;;4.99;100.00
24486;BME280;13449;49.374;8.584;2024-03-17T01:52:57;101237.47;;;4.96;100.00
24486;BME280;13449;49.374;8.584;2024-03-17T01:55:26;101233.09;;;4.96;100.00
24486;BME280;13449;49.374;8.584;2024-03-17T01:57:52;101234.91;;;4.94;100.00
24486;BME280;13449;49.374;8.584;2024-03-17T02:00:21;101230.66;;;4.92;100.00
24486;BME280;13449;49.374;8.584;2024-03-17T02:02:49;101223.91;;;4.86;100.00
24486;BME280;13449;49.374;8.584;2024-03-17T02:05:15;101223.13;;;4.84;100.00
24486;BME280;13449;49.374;8.584;2024-03-17T02:07:43;101222.34;;;4.82;100.00
24486;BME280;13449;49.374;8.584;2024-03-17T02:10:11;101224.97;;;4.82;100.00
24486;BME280;13449;49.374;8.584;2024-03-17T02:12:37;101226.91;;;4.77;100.00
24486;BME280;13449;49.374;8.584;2024-03-17T02:15:05;101226.00;;;4.78;100.00
24486;BME280;13449;49.374;8.584;2024-03-17T02:17:34;101218.31;;;4.75;100.00
24486;BME280;13449;49.374;8.584;2024-03-17T02:20:00;101213.09;;;4.75;100.00
24486;BME280;13449;49.374;8.584;2024-03-17T02:22:28;101207.97;;;4.72;100.00
24486;BME280;13449;49.374;8.584;2024-03-17T02:24:54;101205.34;;;4.72;100.00
24486;BME280;13449;49.374;8.584;2024-03-17T02:27:22;101218.19;;;4.78;100.00
24486;BME280;13449;49.374;8.584;2024-03-17T02:29:47;101210.41;;;4.76;100.00
24486;BME280;13449;49.374;8.584;2024-03-17T02:32:13;101207.81;;;4.76;100.00
24486;BME280;13449;49.374;8.584;2024-03-17T02:34:41;101215.00;;;4.70;100.00
24486;BME280;13449;49.374;8.584;2024-03-17T02:37:09;101208.47;;;4.60;100.00
24486;BME280;13449;49.374;8.584;2024-03-17T02:39:34;101212.09;;;4.56;100.00
24486;BME280;13449;49.374;8.584;2024-03-17T02:42:08;101201.78;;;4.53;100.00
24486;BME280;13449;49.374;8.584;2024-03-17T02:44:41;101205.44;;;4.48;100.00
24486;BME280;13449;49.374;8.584;2024-03-17T02:47:06;101203.97;;;4.41;100.00
24486;BME280;13449;49.374;8.584;2024-03-17T02:49:35;101199.00;;;4.35;100.00
24486;BME280;13449;49.374;8.584;2024-03-17T02:52:10;101199.00;;;4.35;100.00
24486;BME280;13449;49.374;8.584;2024-03-17T02:54:38;101204.47;;;4.29;100.00
24486;BME280;13449;49.374;8.584;2024-03-17T02:57:07;101207.13;;;4.28;100.00
24486;BME280;13449;49.374;8.584;2024-03-17T02:59:33;101208.25;;;4.44;100.00
24486;BME280;13449;49.374;8.584;2024-03-17T03:01:59;101214.41;;;4.41;100.00
24486;BME280;13449;49.374;8.584;2024-03-17T03:04:26;101212.81;;;4.37;100.00
24486;BME280;13449;49.374;8.584;2024-03-17T03:06:51;101221.44;;;4.39;100.00
24486;BME280;13449;49.374;8.584;2024-03-17T03:09:17;101211.75;;;4.43;100.00
24486;BME280;13449;49.374;8.584;2024-03-17T03:11:51;101215.09;;;4.46;100.00
24486;BME280;13449;49.374;8.584;2024-03-17T03:14:17;101215.75;;;4.51;100.00
24486;BME280;13449;49.374;8.584;2024-03-17T03:16:43;101219.16;;;4.54;100.00
24486;BME280;13449;49.374;8.584;2024-03-17T03:19:09;101219.09;;;4.55;100.00
24486;BME280;13449;49.374;8.584;2024-03-17T03:21:35;101215.53;;;4.58;100.00
24486;BME280;13449;49.374;8.584;2024-03-17T03:24:01;101220.63;;;4.61;100.00
24486;BME280;13449;49.374;8.584;2024-03-17T03:26:29;101218.78;;;4.63;100.00
24486;BME280;13449;49.374;8.584;2024-03-17T03:28:55;101222.06;;;4.68;100.00
24486;BME280;13449;49.374;8.584;2024-03-17T03:31:20;101216.72;;;4.71;100.00
24486;BME280;13449;49.374;8.584;2024-03-17T03:33:47;101213.31;;;4.69;100.00
24486;BME280;13449;49.374;8.584;2024-03-17T03:36:15;101215.78;;;4.72;100.00
24486;BME280;13449;49.374;8.584;2024-03-17T03:38:42;101217.47;;;4.74;100.00
24486;BME280;13449;49.374;8.584;2024-03-17T03:41:08;101217.25;;;4.79;100.00
24486;BME280;13449;49.374;8.584;2024-03-17T03:43:34;101220.66;;;4.81;100.00
24486;BME280;13449;49.374;8.584;2024-03-17T03:46:02;101223.25;;;4.81;100.00
24486;BME280;13449;49.374;8.584;2024-03-17T03:48:28;101226.44;;;4.89;100.00
24486;BME280;13449;49.374;8.584;2024-03-17T03:50:56;101222.78;;;4.93;100.00
24486;BME280;13449;49.374;8.584;2024-03-17T03:53:23;101228.72;;;4.97;100.00
24486;BME280;13449;49.374;8.584;2024-03-17T03:55:49;101216.44;;;4.99;100.00
24486;BME280;13449;49.374;8.584;2024-03-17T03:58:15;101218.84;;;5.03;100.00
24486;BME280;13449;49.374;8.584;2024-03-17T04:00:43;101214.59;;;5.01;100.00
24486;BME280;13449;49.374;8.584;2024-03-17T04:03:08;101217.28;;;4.99;100.00
24486;BME280;13449;49.374;8.584;2024-03-17T04:05:34;101215.72;;;4.95;100.00
24486;BME280;13449;49.374;8.584;2024-03-17T04:08:00;101209.84;;;4.90;100.00
24486;BME280;13449;49.374;8.584;2024-03-17T04:10:28;101211.91;;;4.82;100.00
24486;BME280;13449;49.374;8.584;2024-03-17T04:12:53;101207.88;;;4.75;100.00
24486;BME280;13449;49.374;8.584;2024-03-17T04:15:19;101194.25;;;4.67;100.00
24486;BME280;13449;49.374;8.584;2024-03-17T04:17:50;101198.03;;;4.60;100.00
24486;BME280;13449;49.374;8.584;2024-03-17T04:20:15;101193.91;;;4.54;100.00
24486;BME280;13449;49.374;8.584;2024-03-17T04:22:43;101201.00;;;4.50;100.00
24486;BME280;13449;49.374;8.584;2024-03-17T04:25:10;101199.38;;;4.48;100.00
24486;BME280;13449;49.374;8.584;2024-03-17T04:27:36;101205.63;;;4.44;100.00
24486;BME280;13449;49.374;8.584;2024-03-17T04:30:02;101210.91;;;4.42;100.00
24486;BME280;13449;49.374;8.584;2024-03-17T04:32:33;101206.75;;;4.37;100.00
24486;BME280;13449;49.374;8.584;2024-03-17T04:35:01;101203.63;;;4.29;100.00
24486;BME280;13449;49.374;8.584;2024-03-17T04:37:27;101206.28;;;4.27;100.00
24486;BME280;13449;49.374;8.584;2024-03-17T04:39:53;101208.09;;;4.25;100.00
24486;BME280;13449;49.374;8.584;2024-03-17T04:42:23;101203.91;;;4.21;100.00
24486;BME280;13449;49.374;8.584;2024-03-17T04:44:48;101201.28;;;4.21;100.00
24486;BME280;13449;49.374;8.584;2024-03-17T04:47:20;101207.34;;;4.21;100.00
24486;BME280;13449;49.374;8.584;2024-03-17T04:49:46;101210.75;;;4.24;100.00
24486;BME280;13449;49.374;8.584;2024-03-17T04:52:13;101209.69;;;4.29;100.00
24486;BME280;13449;49.374;8.584;2024-03-17T04:54:40;101209.44;;;4.35;100.00
24486;BME280;13449;49.374;8.584;2024-03-17T04:57:08;101211.75;;;4.43;100.00
24486;BME280;13449;49.374;8.584;2024-03-17T04:59:34;101197.75;;;4.45;100.00
24486;BME280;13449;49.374;8.584;2024-03-17T05:02:03;101198.41;;;4.50;100.00
24486;BME280;13449;49.374;8.584;2024-03-17T05:04:33;101203.78;;;4.68;100.00
24486;BME280;13449;49.374;8.584;2024-03-17T05:06:58;101208.09;;;4.69;100.00
24486;BME280;13449;49.374;8.584;2024-03-17T05:09:24;101206.41;;;4.68;100.00
24486;BME280;13449;49.374;8.584;2024-03-17T05:11:50;101209.66;;;4.73;100.00
24486;BME280;13449;49.374;8.584;2024-03-17T05:14:18;101213.09;;;4.75;100.00
24486;BME280;13449;49.374;8.584;2024-03-17T05:16:52;101211.91;;;4.82;100.00
24486;BME280;13449;49.374;8.584;2024-03-17T05:19:20;101210.78;;;4.89;100.00
24486;BME280;13449;49.374;8.584;2024-03-17T05:21:45;101220.69;;;5.01;100.00
24486;BME280;13449;49.374;8.584;2024-03-17T05:24:11;101219.91;;;4.99;100.00
24486;BME280;13449;49.374;8.584;2024-03-17T05:26:40;101218.47;;;4.92;100.00
24486;BME280;13449;49.374;8.584;2024-03-17T05:29:07;101219.59;;;4.85;100.00
24486;BME280;13449;49.374;8.584;2024-03-17T05:31:33;101223.25;;;4.81;100.00
24486;BME280;13449;49.374;8.584;2024-03-17T05:33:59;101220.84;;;4.76;100.00
24486;BME280;13449;49.374;8.584;2024-03-17T05:36:25;101214.56;;;4.60;100.00
24486;BME280;13449;49.374;8.584;2024-03-17T05:38:50;101218.28;;;4.53;100.00
24486;BME280;13449;49.374;8.584;2024-03-17T05:41:16;101212.09;;;4.56;100.00
24486;BME280;13449;49.374;8.584;2024-03-17T05:43:41;101208.59;;;4.57;100.00
24486;BME280;13449;49.374;8.584;2024-03-17T05:46:11;101219.03;;;4.57;100.00
24486;BME280;13449;49.374;8.584;2024-03-17T05:48:39;101217.31;;;4.56;100.00
24486;BME280;13449;49.374;8.584;2024-03-17T05:51:06;101213.69;;;4.60;100.00
24486;BME280;13449;49.374;8.584;2024-03-17T05:53:35;101222.31;;;4.62;100.00
24486;BME280;13449;49.374;8.584;2024-03-17T05:56:02;101223.09;;;4.64;100.00
24486;BME280;13449;49.374;8.584;2024-03-17T05:58:29;101230.94;;;4.64;100.00
24486;BME280;13449;49.374;8.584;2024-03-17T06:00:54;101230.00;;;4.65;100.00
24486;BME280;13449;49.374;8.584;2024-03-17T06:03:21;101223.09;;;4.64;100.00
24486;BME280;13449;49.374;8.584;2024-03-17T06:05:48;101219.66;;;4.63;100.00
24486;BME280;13449;49.374;8.584;2024-03-17T06:08:14;101226.56;;;4.64;100.00
24486;BME280;13449;49.374;8.584;2024-03-17T06:10:48;101218.53;;;4.69;100.00
24486;BME280;13449;49.374;8.584;2024-03-17T06:13:14;101219.25;;;4.72;100.00
24486;BME280;13449;49.374;8.584;2024-03-17T06:15:43;101221.69;;;4.77;100.00
24486;BME280;13449;49.374;8.584;2024-03-17T06:18:11;101219.59;;;4.85;100.00
24486;BME280;13449;49.374;8.584;2024-03-17T06:20:42;101213.03;;;4.97;100.00
24486;BME280;13449;49.374;8.584;2024-03-17T06:23:09;101216.19;;;5.05;100.00
24486;BME280;13449;49.374;8.584;2024-03-17T06:25:42;101218.34;;;5.16;100.00
24486;BME280;13449;49.374;8.584;2024-03-17T06:28:09;101217.97;;;5.25;100.00
24486;BME280;13449;49.374;8.584;2024-03-17T06:30:36;101213.06;;;5.37;100.00
24486;BME280;13449;49.374;8.584;2024-03-17T06:33:04;101216.13;;;5.47;100.00
24486;BME280;13449;49.374;8.584;2024-03-17T06:35:30;101220.03;;;5.57;100.00
24486;BME280;13449;49.374;8.584;2024-03-17T06:38:00;101213.63;;;5.64;100.00
24486;BME280;13449;49.374;8.584;2024-03-17T06:40:26;101213.38;;;5.70;100.00
24486;BME280;13449;49.374;8.584;2024-03-17T06:42:52;101212.44;;;5.71;100.00
24486;BME280;13449;49.374;8.584;2024-03-17T06:45:20;101208.06;;;5.72;100.00
24486;BME280;13449;49.374;8.584;2024-03-17T06:47:46;101210.59;;;5.74;100.00
24486;BME280;13449;49.374;8.584;2024-03-17T06:50:14;101213.00;;;5.78;100.00
24486;BME280;13449;49.374;8.584;2024-03-17T06:52:42;101208.38;;;5.85;100.00
24486;BME280;13449;49.374;8.584;2024-03-17T06:55:08;101193.13;;;5.94;100.00
24486;BME280;13449;49.374;8.584;2024-03-17T06:57:34;101189.09;;;6.06;100.00
24486;BME280;13449;49.374;8.584;2024-03-17T07:00:02;101198.78;;;6.23;100.00
24486;BME280;13449;49.374;8.584;2024-03-17T07:02:32;101197.97;;;6.40;100.00
24486;BME280;13449;49.374;8.584;2024-03-17T07:04:58;101185.00;;;6.55;100.00
24486;BME280;13449;49.374;8.584;2024-03-17T07:07:29;101193.56;;;6.76;100.00
24486;BME280;13449;49.374;8.584;2024-03-17T07:09:57;101184.50;;;6.83;100.00
24486;BME280;13449;49.374;8.584;2024-03-17T07:12:23;101177.28;;;6.88;100.00
24486;BME280;13449;49.374;8.584;2024-03-17T07:14:55;101175.66;;;7.03;100.00
24486;BME280;13449;49.374;8.584;2024-03-17T07:17:25;101173.19;;;7.17;100.00
24486;BME280;13449;49.374;8.584;2024-03-17T07:19:51;101178.00;;;7.25;100.00
24486;BME280;13449;49.374;8.584;2024-03-17T07:22:16;101174.56;;;7.25;100.00
24486;BME280;13449;49.374;8.584;2024-03-17T07:24:46;101173.25;;;7.16;100.00
24486;BME280;13449;49.374;8.584;2024-03-17T07:27:12;101176.31;;;7.24;100.00
24486;BME280;13449;49.374;8.584;2024-03-17T07:29:40;101181.09;;;7.33;100.00
24486;BME280;13449;49.374;8.584;2024-03-17T07:32:06;101169.22;;;7.43;100.00
24486;BME280;13449;49.374;8.584;2024-03-17T07:34:34;101165.50;;;7.47;100.00
24486;BME280;13449;49.374;8.584;2024-03-17T07:37:00;101157.06;;;7.42;100.00
24486;BME280;13449;49.374;8.584;2024-03-17T07:39:31;101153.94;;;7.51;100.00
24486;BME280;13449;49.374;8.584;2024-03-17T07:42:01;101149.38;;;7.71;100.00
24486;BME280;13449;49.374;8.584;2024-03-17T07:44:29;101148.34;;;7.91;100.00
24486;BME280;13449;49.374;8.584;2024-03-17T07:47:03;101141.13;;;7.94;100.00
24486;BME280;13449;49.374;8.584;2024-03-17T07:49:31;101123.44;;;7.98;100.00
24486;BME280;13449;49.374;8.584;2024-03-17T07:51:57;101120.72;;;8.31;100.00
24486;BME280;13449;49.374;8.584;2024-03-17T07:54:24;101117.81;;;8.51;100.00
24486;BME280;13449;49.374;8.584;2024-03-17T07:56:49;101114.63;;;8.46;100.00
24486;BME280;13449;49.374;8.584;2024-03-17T07:59:15;101119.16;;;8.58;100.00
24486;BME280;13449;49.374;8.584;2024-03-17T08:01:45;101120.50;;;8.65;100.00
24486;BME280;13449;49.374;8.584;2024-03-17T08:04:11;101122.13;;;8.82;100.00
24486;BME280;13449;49.374;8.584;2024-03-17T08:06:39;101125.16;;;8.90;100.00
24486;BME280;13449;49.374;8.584;2024-03-17T08:09:04;101124.97;;;8.93;100.00
24486;BME280;13449;49.374;8.584;2024-03-17T08:11:30;101131.03;;;9.24;100.00
24486;BME280;13449;49.374;8.584;2024-03-17T08:13:56;101135.97;;;9.14;100.00
24486;BME280;13449;49.374;8.584;2024-03-17T08:16:23;101133.66;;;9.24;100.00
24486;BME280;13449;49.374;8.584;2024-03-17T08:18:49;101128.50;;;9.37;100.00
24486;BME280;13449;49.374;8.584;2024-03-17T08:21:14;101141.47;;;9.40;100.00
24486;BME280;13449;49.374;8.584;2024-03-17T08:23:40;101139.13;;;9.49;100.00
24486;BME280;13449;49.374;8.584;2024-03-17T08:26:08;101134.13;;;9.59;100.00
24486;BME280;13449;49.374;8.584;2024-03-17T08:28:36;101131.34;;;9.48;100.00
24486;BME280;13449;49.374;8.584;2024-03-17T08:31:03;101125.88;;;9.51;100.00
24486;BME280;13449;49.374;8.584;2024-03-17T08:33:29;101133.88;;;9.64;100.00
24486;BME280;13449;49.374;8.584;2024-03-17T08:36:04;101119.47;;;9.69;100.00
24486;BME280;13449;49.374;8.584;2024-03-17T08:38:31;101119.25;;;9.86;100.00
24486;BME280;13449;49.374;8.584;2024-03-17T08:41:01;101127.22;;;9.99;100.00
24486;BME280;13449;49.374;8.584;2024-03-17T08:43:27;101120.00;;;9.88;100.00
24486;BME280;13449;49.374;8.584;2024-03-17T08:46:03;101121.13;;;9.99;100.00
24486;BME280;13449;49.374;8.584;2024-03-17T08:48:34;101113.00;;;10.16;100.00
24486;BME280;13449;49.374;8.584;2024-03-17T08:51:02;101104.34;;;10.14;100.00
24486;BME280;13449;49.374;8.584;2024-03-17T08:53:28;101104.63;;;10.09;100.00
24486;BME280;13449;49.374;8.584;2024-03-17T08:55:54;101104.94;;;10.05;100.00
24486;BME280;13449;49.374;8.584;2024-03-17T08:58:20;101112.63;;;10.22;100.00
24486;BME280;13449;49.374;8.584;2024-03-17T09:00:46;101114.13;;;10.26;100.00
24486;BME280;13449;49.374;8.584;2024-03-17T09:03:12;101111.63;;;10.37;100.00
24486;BME280;13449;49.374;8.584;2024-03-17T09:05:42;101110.75;;;10.64;100.00
24486;BME280;13449;49.374;8.584;2024-03-17T09:08:20;101113.19;;;10.67;100.00
24486;BME280;13449;49.374;8.584;2024-03-17T09:10:48;101117.66;;;10.92;100.00
24486;BME280;13449;49.374;8.584;2024-03-17T09:13:15;101115.31;;;10.87;100.00
24486;BME280;13449;49.374;8.584;2024-03-17T09:15:57;101110.81;;;11.15;100.00
24486;BME280;13449;49.374;8.584;2024-03-17T09:18:26;101114.50;;;11.25;100.00
24486;BME280;13449;49.374;8.584;2024-03-17T09:21:06;101093.63;;;10.96;100.00
24486;BME280;13449;49.374;8.584;2024-03-17T09:23:33;101095.63;;;11.18;100.00
24486;BME280;13449;49.374;8.584;2024-03-17T09:26:03;101097.22;;;11.21;100.00
24486;BME280;13449;49.374;8.584;2024-03-17T09:28:30;101089.19;;;11.09;100.00
24486;BME280;13449;49.374;8.584;2024-03-17T09:30:56;101094.03;;;11.41;100.00
24486;BME280;13449;49.374;8.584;2024-03-17T09:33:23;101101.34;;;11.74;100.00
24486;BME280;13449;49.374;8.584;2024-03-17T09:38:29;101096.78;;;11.52;100.00
24486;BME280;13449;49.374;8.584;2024-03-17T09:40:56;101097.56;;;11.65;100.00
24486;BME280;13449;49.374;8.584;2024-03-17T09:43:39;101107.09;;;11.68;100.00
24486;BME280;13449;49.374;8.584;2024-03-17T09:46:09;101103.28;;;11.59;100.00
24486;BME280;13449;49.374;8.584;2024-03-17T09:48:37;101106.53;;;11.76;100.00
24486;BME280;13449;49.374;8.584;2024-03-17T09:51:03;101102.19;;;11.87;100.00
24486;BME280;13449;49.374;8.584;2024-03-17T09:53:31;101105.06;;;11.72;100.00
24486;BME280;13449;49.374;8.584;2024-03-17T09:56:03;101108.09;;;11.78;100.00
24486;BME280;13449;49.374;8.584;2024-03-17T09:58:31;101111.00;;;11.99;100.00
24486;BME280;13449;49.374;8.584;2024-03-17T10:00:57;101103.41;;;12.07;100.00
24486;BME280;13449;49.374;8.584;2024-03-17T10:06:23;101098.03;;;11.96;100.00
24486;BME280;13449;49.374;8.584;2024-03-17T10:08:53;101106.56;;;12.36;100.00
24486;BME280;13449;49.374;8.584;2024-03-17T10:11:23;101102.47;;;12.32;100.00
24486;BME280;13449;49.374;8.584;2024-03-17T10:14:08;101099.84;;;12.43;100.00
24486;BME280;13449;49.374;8.584;2024-03-17T10:16:38;101110.44;;;12.78;100.00
24486;BME280;13449;49.374;8.584;2024-03-17T10:19:15;101115.84;;;12.88;100.00
24486;BME280;13449;49.374;8.584;2024-03-17T10:21:44;101112.84;;;12.93;100.00
24486;BME280;13449;49.374;8.584;2024-03-17T10:26:46;101107.56;;;12.93;100.00
24486;BME280;13449;49.374;8.584;2024-03-17T10:29:29;101100.16;;;12.98;100.00
24486;BME280;13449;49.374;8.584;2024-03-17T10:32:03;101103.91;;;12.71;100.00
24486;BME280;13449;49.374;8.584;2024-03-17T10:34:32;101092.34;;;12.61;100.00
24486;BME280;13449;49.374;8.584;2024-03-17T10:37:13;101095.31;;;12.80;100.00
24486;BME280;13449;49.374;8.584;2024-03-17T10:39:43;101099.88;;;12.78;100.00
24486;BME280;13449;49.374;8.584;2024-03-17T10:42:12;101106.66;;;13.16;100.00
24486;BME280;13449;49.374;8.584;2024-03-17T10:44:40;101101.34;;;13.05;100.00
24486;BME280;13449;49.374;8.584;2024-03-17T10:47:12;101102.63;;;13.34;100.00
24486;BME280;13449;49.374;8.584;2024-03-17T10:49:41;101108.38;;;13.51;100.00
24486;BME280;13449;49.374;8.584;2024-03-17T10:52:15;101101.16;;;13.75;100.00
24486;BME280;13449;49.374;8.584;2024-03-17T10:54:47;101097.69;;;13.74;100.00
24486;BME280;13449;49.374;8.584;2024-03-17T10:57:27;101083.56;;;13.85;100.00
24486;BME280;13449;49.374;8.584;2024-03-17T10:59:55;101072.75;;;13.77;100.00
24486;BME280;13449;49.374;8.584;2024-03-17T11:02:23;101078.97;;;13.87;100.00
24486;BME280;13449;49.374;8.584;2024-03-17T11:04:57;101075.88;;;13.82;100.00
24486;BME280;13449;49.374;8.584;2024-03-17T11:07:24;101065.50;;;13.90;100.00
24486;BME280;13449;49.374;8.584;2024-03-17T11:09:53;101059.72;;;13.85;100.00
24486;BME280;13449;49.374;8.584;2024-03-17T11:20:56;101046.03;;;13.80;100.00
24486;BME280;13449;49.374;8.584;2024-03-17T11:23:34;101044.78;;;13.95;100.00
24486;BME280;13449;49.374;8.584;2024-03-17T11:26:00;101046.72;;;14.25;100.00
24486;BME280;13449;49.374;8.584;2024-03-17T11:31:32;101032.13;;;14.31;100.00
24486;BME280;13449;49.374;8.584;2024-03-17T11:34:04;101019.56;;;14.33;100.00
24486;BME280;13449;49.374;8.584;2024-03-17T11:36:35;101017.72;;;14.24;100.00
24486;BME280;13449;49.374;8.584;2024-03-17T11:39:06;101015.53;;;14.18;100.00
24486;BME280;13449;49.374;8.584;2024-03-17T11:51:57;101005.41;;;14.55;100.00
24486;BME280;13449;49.374;8.584;2024-03-17T11:54:32;101001.53;;;14.59;100.00
24486;BME280;13449;49.374;8.584;2024-03-17T11:57:05;101006.38;;;15.05;100.00
24486;BME280;13449;49.374;8.584;2024-03-17T11:59:33;101001.00;;;14.95;100.00
24486;BME280;13449;49.374;8.584;2024-03-17T12:02:00;101000.78;;;14.78;100.00
24486;BME280;13449;49.374;8.584;2024-03-17T12:04:26;100992.03;;;15.17;100.00
24486;BME280;13449;49.374;8.584;2024-03-17T12:06:54;100991.59;;;14.82;100.00
24486;BME280;13449;49.374;8.584;2024-03-17T12:09:21;100995.22;;;14.81;100.00
24486;BME280;13449;49.374;8.584;2024-03-17T12:11:51;100997.97;;;14.70;100.00
24486;BME280;13449;49.374;8.584;2024-03-17T12:14:20;101001.38;;;14.60;100.00
24486;BME280;13449;49.374;8.584;2024-03-17T12:16:54;100993.53;;;14.80;100.00
24486;BME280;13449;49.374;8.584;2024-03-17T12:19:20;101002.56;;;14.98;100.00
24486;BME280;13449;49.374;8.584;2024-03-17T12:21:53;100986.81;;;14.76;100.00
24486;BME280;13449;49.374;8.584;2024-03-17T12:24:24;100975.78;;;14.50;100.00
24486;BME280;13449;49.374;8.584;2024-03-17T12:26:54;100988.19;;;14.70;100.00
24486;BME280;13449;49.374;8.584;2024-03-17T12:32:04;100990.66;;;14.62;100.00
24486;BME280;13449;49.374;8.584;2024-03-17T12:34:33;100976.41;;;14.63;100.00
24486;BME280;13449;49.374;8.584;2024-03-17T12:37:02;100990.00;;;14.70;100.00
24486;BME280;13449;49.374;8.584;2024-03-17T12:39:31;100980.88;;;14.62;100.00
24486;BME280;13449;49.374;8.584;2024-03-17T12:42:15;100978.69;;;14.47;100.00
24486;BME280;13449;49.374;8.584;2024-03-17T12:44:52;100978.94;;;14.64;100.00
24486;BME280;13449;49.374;8.584;2024-03-17T12:47:20;100970.53;;;14.59;100.00
24486;BME280;13449;49.374;8.584;2024-03-17T12:52:25;100955.78;;;14.66;100.00
24486;BME280;13449;49.374;8.584;2024-03-17T12:57:42;100969.22;;;14.75;100.00
24486;BME280;13449;49.374;8.584;2024-03-17T13:00:27;100968.13;;;14.77;100.00
24486;BME280;13449;49.374;8.584;2024-03-17T13:03:02;100960.50;;;14.63;100.00
24486;BME280;13449;49.374;8.584;2024-03-17T13:05:29;100961.44;;;14.83;100.00
24486;BME280;13449;49.374;8.584;2024-03-17T13:07:55;100958.78;;;15.13;100.00
24486;BME280;13449;49.374;8.584;2024-03-17T13:10:25;100957.03;;;14.93;100.00
24486;BME280;13449;49.374;8.584;2024-03-17T13:13:00;100946.34;;;14.74;100.00
24486;BME280;13449;49.374;8.584;2024-03-17T13:15:27;100939.75;;;14.68;100.00
24486;BME280;13449;49.374;8.584;2024-03-17T13:17:54;100950.47;;;14.97;100.00
24486;BME280;13449;49.374;8.584;2024-03-17T13:20:20;100936.78;;;14.61;100.00
24486;BME280;13449;49.374;8.584;2024-03-17T13:22:46;100957.22;;;14.71;100.00
24486;BME280;13449;49.374;8.584;2024-03-17T13:25:16;100949.25;;;15.01;100.00
24486;BME280;13449;49.374;8.584;2024-03-17T13:27:43;100943.59;;;14.85;100.00
24486;BME280;13449;49.374;8.584;2024-03-17T13:30:11;100936.06;;;14.90;100.00
24486;BME280;13449;49.374;8.584;2024-03-17T13:32:37;100926.78;;;15.05;100.00